Elba, Minnesota
Current Conditions -  °F | °C
As of 3:34 PM on Friday 19 Dec 2014 (Local Time) from KONA Reporting Station
Overcast Overcast  
Wind Chill: -4°   Ceiling: 2600
Heat Index: -1°   Visibility: 10mi
Dew Point: -5°   Wind: 5mph
Humidity: 75%   Direction: 120°ESE
Pressure: 30.25"   Gusts: NA
Location:  44.1503°N, 91.9879°W
Report Text: KONA 192134Z AUTO 12004KT 10SM OVC026 M01/M05 A3025 RMK AO2
Loading
Personal Weather Stations






























Interactive Weather Map New forecast layout! Learn more

10-Day Weather Forecast

Advertisements
Track Severe Weather on mobile